sensor_id;sensor_type;location;lat;lon;timestamp;P1;durP1;ratioP1;P2;durP2;ratioP2
70247;SDS011;57641;51.416;5.506;2022-12-18T00:01:22;42.63;;;17.90;;
70247;SDS011;57641;51.416;5.506;2022-12-18T00:03:49;46.03;;;16.90;;
70247;SDS011;57641;51.416;5.506;2022-12-18T00:06:19;47.97;;;18.20;;
70247;SDS011;57641;51.416;5.506;2022-12-18T00:08:47;46.70;;;18.13;;
70247;SDS011;57641;51.416;5.506;2022-12-18T00:11:20;44.37;;;17.77;;
70247;SDS011;57641;51.416;5.506;2022-12-18T00:13:48;44.80;;;17.58;;
70247;SDS011;57641;51.416;5.506;2022-12-18T00:16:14;45.87;;;16.23;;
70247;SDS011;57641;51.416;5.506;2022-12-18T00:18:41;49.47;;;17.97;;
70247;SDS011;57641;51.416;5.506;2022-12-18T00:21:08;43.97;;;16.93;;
70247;SDS011;57641;51.416;5.506;2022-12-18T00:23:35;47.50;;;17.70;;
70247;SDS011;57641;51.416;5.506;2022-12-18T00:26:02;45.10;;;16.77;;
70247;SDS011;57641;51.416;5.506;2022-12-18T00:28:30;46.97;;;18.00;;
70247;SDS011;57641;51.416;5.506;2022-12-18T00:31:02;46.23;;;18.03;;
70247;SDS011;57641;51.416;5.506;2022-12-18T00:33:29;47.97;;;18.13;;
70247;SDS011;57641;51.416;5.506;2022-12-18T00:36:00;42.40;;;15.77;;
70247;SDS011;57641;51.416;5.506;2022-12-18T00:38:30;43.50;;;17.97;;
70247;SDS011;57641;51.416;5.506;2022-12-18T00:40:59;46.10;;;18.80;;
70247;SDS011;57641;51.416;5.506;2022-12-18T00:43:25;52.60;;;19.23;;
70247;SDS011;57641;51.416;5.506;2022-12-18T00:45:50;44.43;;;17.27;;
70247;SDS011;57641;51.416;5.506;2022-12-18T00:48:15;47.97;;;18.03;;
70247;SDS011;57641;51.416;5.506;2022-12-18T00:50:44;45.03;;;17.63;;
70247;SDS011;57641;51.416;5.506;2022-12-18T00:53:10;46.03;;;16.20;;
70247;SDS011;57641;51.416;5.506;2022-12-18T00:55:42;46.63;;;16.10;;
70247;SDS011;57641;51.416;5.506;2022-12-18T00:58:09;38.13;;;16.93;;
70247;SDS011;57641;51.416;5.506;2022-12-18T01:00:42;45.93;;;17.20;;
70247;SDS011;57641;51.416;5.506;2022-12-18T01:03:09;43.37;;;16.53;;
70247;SDS011;57641;51.416;5.506;2022-12-18T01:05:39;43.40;;;18.07;;
70247;SDS011;57641;51.416;5.506;2022-12-18T01:08:06;42.07;;;16.27;;
70247;SDS011;57641;51.416;5.506;2022-12-18T01:10:31;39.83;;;16.40;;
70247;SDS011;57641;51.416;5.506;2022-12-18T01:13:00;42.30;;;15.70;;
70247;SDS011;57641;51.416;5.506;2022-12-18T01:15:25;47.47;;;16.60;;
70247;SDS011;57641;51.416;5.506;2022-12-18T01:17:54;39.43;;;16.40;;
70247;SDS011;57641;51.416;5.506;2022-12-18T01:20:19;43.77;;;16.87;;
70247;SDS011;57641;51.416;5.506;2022-12-18T01:22:45;42.63;;;16.97;;
70247;SDS011;57641;51.416;5.506;2022-12-18T01:25:10;47.67;;;16.53;;
70247;SDS011;57641;51.416;5.506;2022-12-18T01:27:36;49.73;;;18.17;;
70247;SDS011;57641;51.416;5.506;2022-12-18T01:30:22;60.43;;;23.17;;
70247;SDS011;57641;51.416;5.506;2022-12-18T01:32:47;57.73;;;21.40;;
70247;SDS011;57641;51.416;5.506;2022-12-18T01:35:12;59.87;;;22.27;;
70247;SDS011;57641;51.416;5.506;2022-12-18T01:37:38;56.10;;;21.90;;
70247;SDS011;57641;51.416;5.506;2022-12-18T01:40:04;59.57;;;21.37;;
70247;SDS011;57641;51.416;5.506;2022-12-18T01:42:30;53.10;;;19.23;;
70247;SDS011;57641;51.416;5.506;2022-12-18T01:45:00;49.30;;;18.07;;
70247;SDS011;57641;51.416;5.506;2022-12-18T01:50:15;40.43;;;15.90;;
70247;SDS011;57641;51.416;5.506;2022-12-18T01:53:32;40.03;;;16.13;;
70247;SDS011;57641;51.416;5.506;2022-12-18T01:55:37;44.53;;;16.27;;
70247;SDS011;57641;51.416;5.506;2022-12-18T01:58:08;41.20;;;16.23;;
70247;SDS011;57641;51.416;5.506;2022-12-18T02:00:33;38.20;;;15.50;;
70247;SDS011;57641;51.416;5.506;2022-12-18T02:02:59;38.43;;;15.37;;
70247;SDS011;57641;51.416;5.506;2022-12-18T02:05:28;43.63;;;16.80;;
70247;SDS011;57641;51.416;5.506;2022-12-18T02:08:21;40.90;;;15.43;;
70247;SDS011;57641;51.416;5.506;2022-12-18T02:16:19;46.03;;;16.33;;
70247;SDS011;57641;51.416;5.506;2022-12-18T02:18:47;36.20;;;14.43;;
70247;SDS011;57641;51.416;5.506;2022-12-18T02:21:32;43.63;;;16.73;;
70247;SDS011;57641;51.416;5.506;2022-12-18T02:27:07;35.30;;;14.33;;
70247;SDS011;57641;51.416;5.506;2022-12-18T02:29:43;40.10;;;15.63;;
70247;SDS011;57641;51.416;5.506;2022-12-18T02:32:20;42.20;;;16.27;;
70247;SDS011;57641;51.416;5.506;2022-12-18T02:34:50;40.87;;;15.67;;
70247;SDS011;57641;51.416;5.506;2022-12-18T02:37:20;39.40;;;15.63;;
70247;SDS011;57641;51.416;5.506;2022-12-18T02:39:51;42.13;;;15.43;;
70247;SDS011;57641;51.416;5.506;2022-12-18T02:42:20;39.63;;;15.13;;
70247;SDS011;57641;51.416;5.506;2022-12-18T02:44:49;37.27;;;14.57;;
70247;SDS011;57641;51.416;5.506;2022-12-18T02:47:17;35.90;;;13.70;;
70247;SDS011;57641;51.416;5.506;2022-12-18T03:01:28;32.30;;;13.97;;
70247;SDS011;57641;51.416;5.506;2022-12-18T03:04:16;42.93;;;16.50;;
70247;SDS011;57641;51.416;5.506;2022-12-18T03:07:11;38.20;;;15.57;;
70247;SDS011;57641;51.416;5.506;2022-12-18T03:09:45;34.70;;;14.87;;
70247;SDS011;57641;51.416;5.506;2022-12-18T03:12:18;33.17;;;13.80;;
70247;SDS011;57641;51.416;5.506;2022-12-18T03:17:33;39.83;;;14.60;;
70247;SDS011;57641;51.416;5.506;2022-12-18T03:20:05;31.77;;;13.20;;
70247;SDS011;57641;51.416;5.506;2022-12-18T03:25:04;36.67;;;13.67;;
70247;SDS011;57641;51.416;5.506;2022-12-18T03:27:36;31.87;;;13.67;;
70247;SDS011;57641;51.416;5.506;2022-12-18T03:30:05;34.27;;;14.83;;
70247;SDS011;57641;51.416;5.506;2022-12-18T03:35:28;29.83;;;12.97;;
70247;SDS011;57641;51.416;5.506;2022-12-18T03:37:57;32.63;;;13.13;;
70247;SDS011;57641;51.416;5.506;2022-12-18T03:40:26;29.97;;;12.03;;
70247;SDS011;57641;51.416;5.506;2022-12-18T03:46:18;27.17;;;11.97;;
70247;SDS011;57641;51.416;5.506;2022-12-18T03:48:52;27.57;;;12.80;;
70247;SDS011;57641;51.416;5.506;2022-12-18T03:51:27;29.63;;;13.07;;
70247;SDS011;57641;51.416;5.506;2022-12-18T03:54:00;32.53;;;12.53;;
70247;SDS011;57641;51.416;5.506;2022-12-18T03:56:30;28.13;;;12.83;;
70247;SDS011;57641;51.416;5.506;2022-12-18T03:58:59;29.57;;;12.33;;
70247;SDS011;57641;51.416;5.506;2022-12-18T04:01:30;30.60;;;12.50;;
70247;SDS011;57641;51.416;5.506;2022-12-18T04:04:03;27.90;;;12.83;;
70247;SDS011;57641;51.416;5.506;2022-12-18T04:06:30;30.77;;;12.17;;
70247;SDS011;57641;51.416;5.506;2022-12-18T04:09:01;33.13;;;12.93;;
70247;SDS011;57641;51.416;5.506;2022-12-18T04:11:28;26.20;;;11.90;;
70247;SDS011;57641;51.416;5.506;2022-12-18T04:13:57;29.53;;;11.57;;
70247;SDS011;57641;51.416;5.506;2022-12-18T04:16:25;28.77;;;12.30;;
70247;SDS011;57641;51.416;5.506;2022-12-18T04:18:51;28.17;;;12.50;;
70247;SDS011;57641;51.416;5.506;2022-12-18T04:21:18;29.63;;;11.97;;
70247;SDS011;57641;51.416;5.506;2022-12-18T04:23:44;30.97;;;11.30;;
70247;SDS011;57641;51.416;5.506;2022-12-18T04:26:09;27.97;;;11.80;;
70247;SDS011;57641;51.416;5.506;2022-12-18T04:28:35;29.40;;;13.20;;
70247;SDS011;57641;51.416;5.506;2022-12-18T04:31:10;31.60;;;11.27;;
70247;SDS011;57641;51.416;5.506;2022-12-18T04:33:35;24.80;;;12.37;;
70247;SDS011;57641;51.416;5.506;2022-12-18T04:36:01;27.13;;;12.57;;
70247;SDS011;57641;51.416;5.506;2022-12-18T04:38:27;25.87;;;11.83;;
70247;SDS011;57641;51.416;5.506;2022-12-18T04:40:52;29.70;;;12.40;;
70247;SDS011;57641;51.416;5.506;2022-12-18T04:43:17;29.40;;;11.43;;
70247;SDS011;57641;51.416;5.506;2022-12-18T04:45:43;27.83;;;11.57;;
70247;SDS011;57641;51.416;5.506;2022-12-18T04:48:08;27.83;;;12.30;;
70247;SDS011;57641;51.416;5.506;2022-12-18T04:50:34;23.67;;;10.23;;
70247;SDS011;57641;51.416;5.506;2022-12-18T04:52:59;24.63;;;10.63;;
70247;SDS011;57641;51.416;5.506;2022-12-18T04:55:27;23.00;;;10.47;;
70247;SDS011;57641;51.416;5.506;2022-12-18T04:57:53;22.73;;;10.47;;
70247;SDS011;57641;51.416;5.506;2022-12-18T05:00:19;28.70;;;11.90;;
70247;SDS011;57641;51.416;5.506;2022-12-18T05:02:45;26.70;;;11.80;;
70247;SDS011;57641;51.416;5.506;2022-12-18T05:05:10;26.43;;;10.77;;
70247;SDS011;57641;51.416;5.506;2022-12-18T05:07:36;21.13;;;9.90;;
70247;SDS011;57641;51.416;5.506;2022-12-18T05:10:01;26.80;;;10.87;;
70247;SDS011;57641;51.416;5.506;2022-12-18T05:12:28;24.60;;;11.73;;
70247;SDS011;57641;51.416;5.506;2022-12-18T05:14:58;25.27;;;10.67;;
70247;SDS011;57641;51.416;5.506;2022-12-18T05:17:23;22.93;;;10.60;;
70247;SDS011;57641;51.416;5.506;2022-12-18T05:19:48;27.07;;;10.60;;
70247;SDS011;57641;51.416;5.506;2022-12-18T05:22:14;25.13;;;11.63;;
70247;SDS011;57641;51.416;5.506;2022-12-18T05:24:39;24.70;;;11.43;;
70247;SDS011;57641;51.416;5.506;2022-12-18T05:27:05;22.83;;;11.10;;
70247;SDS011;57641;51.416;5.506;2022-12-18T05:29:30;24.90;;;10.43;;
70247;SDS011;57641;51.416;5.506;2022-12-18T05:31:56;24.77;;;10.73;;
70247;SDS011;57641;51.416;5.506;2022-12-18T05:34:21;25.03;;;10.60;;
70247;SDS011;57641;51.416;5.506;2022-12-18T05:36:46;22.33;;;10.27;;
70247;SDS011;57641;51.416;5.506;2022-12-18T05:39:12;24.20;;;10.20;;
70247;SDS011;57641;51.416;5.506;2022-12-18T05:41:40;25.37;;;10.47;;
70247;SDS011;57641;51.416;5.506;2022-12-18T05:44:09;25.57;;;11.37;;
70247;SDS011;57641;51.416;5.506;2022-12-18T05:46:34;28.07;;;10.73;;
70247;SDS011;57641;51.416;5.506;2022-12-18T05:49:01;26.07;;;11.03;;
70247;SDS011;57641;51.416;5.506;2022-12-18T05:51:27;25.70;;;11.20;;
70247;SDS011;57641;51.416;5.506;2022-12-18T05:53:52;25.20;;;10.90;;
70247;SDS011;57641;51.416;5.506;2022-12-18T05:56:19;22.77;;;11.23;;
70247;SDS011;57641;51.416;5.506;2022-12-18T05:58:46;21.60;;;10.63;;
70247;SDS011;57641;51.416;5.506;2022-12-18T06:01:16;21.47;;;10.37;;
70247;SDS011;57641;51.416;5.506;2022-12-18T06:03:43;24.27;;;10.70;;
70247;SDS011;57641;51.416;5.506;2022-12-18T06:06:25;25.83;;;10.60;;
70247;SDS011;57641;51.416;5.506;2022-12-18T06:08:52;29.73;;;10.93;;
70247;SDS011;57641;51.416;5.506;2022-12-18T06:11:20;25.33;;;11.87;;
70247;SDS011;57641;51.416;5.506;2022-12-18T06:13:49;25.90;;;10.23;;
70247;SDS011;57641;51.416;5.506;2022-12-18T06:16:16;23.70;;;10.80;;
70247;SDS011;57641;51.416;5.506;2022-12-18T06:18:41;27.67;;;11.93;;
70247;SDS011;57641;51.416;5.506;2022-12-18T06:21:07;26.17;;;10.53;;
70247;SDS011;57641;51.416;5.506;2022-12-18T06:23:33;25.80;;;10.17;;
70247;SDS011;57641;51.416;5.506;2022-12-18T06:26:02;20.27;;;9.53;;
70247;SDS011;57641;51.416;5.506;2022-12-18T06:28:30;23.87;;;10.17;;
70247;SDS011;57641;51.416;5.506;2022-12-18T06:30:56;25.57;;;11.03;;
70247;SDS011;57641;51.416;5.506;2022-12-18T06:33:21;24.77;;;10.47;;
70247;SDS011;57641;51.416;5.506;2022-12-18T06:35:46;24.50;;;11.13;;
70247;SDS011;57641;51.416;5.506;2022-12-18T06:38:12;25.20;;;9.50;;
70247;SDS011;57641;51.416;5.506;2022-12-18T06:40:38;25.40;;;10.57;;
70247;SDS011;57641;51.416;5.506;2022-12-18T06:43:04;20.67;;;9.63;;
70247;SDS011;57641;51.416;5.506;2022-12-18T06:45:31;23.73;;;10.73;;
70247;SDS011;57641;51.416;5.506;2022-12-18T06:47:56;26.70;;;10.80;;
70247;SDS011;57641;51.416;5.506;2022-12-18T06:50:21;25.00;;;9.97;;
70247;SDS011;57641;51.416;5.506;2022-12-18T06:52:47;22.43;;;10.23;;
70247;SDS011;57641;51.416;5.506;2022-12-18T06:55:12;25.27;;;10.73;;
70247;SDS011;57641;51.416;5.506;2022-12-18T06:57:38;22.87;;;10.00;;
70247;SDS011;57641;51.416;5.506;2022-12-18T07:00:04;22.57;;;9.40;;
70247;SDS011;57641;51.416;5.506;2022-12-18T07:02:31;23.90;;;10.37;;
70247;SDS011;57641;51.416;5.506;2022-12-18T07:04:57;25.63;;;10.57;;
70247;SDS011;57641;51.416;5.506;2022-12-18T07:07:23;23.97;;;10.40;;
70247;SDS011;57641;51.416;5.506;2022-12-18T07:09:50;24.70;;;10.73;;
70247;SDS011;57641;51.416;5.506;2022-12-18T07:12:16;24.80;;;10.30;;
70247;SDS011;57641;51.416;5.506;2022-12-18T07:14:45;26.37;;;10.30;;
70247;SDS011;57641;51.416;5.506;2022-12-18T07:17:10;25.27;;;9.77;;
70247;SDS011;57641;51.416;5.506;2022-12-18T07:19:36;23.20;;;11.87;;
70247;SDS011;57641;51.416;5.506;2022-12-18T07:22:01;23.30;;;10.27;;
70247;SDS011;57641;51.416;5.506;2022-12-18T07:24:27;21.70;;;10.83;;
70247;SDS011;57641;51.416;5.506;2022-12-18T07:26:53;27.60;;;9.87;;
70247;SDS011;57641;51.416;5.506;2022-12-18T07:29:19;25.00;;;9.87;;
70247;SDS011;57641;51.416;5.506;2022-12-18T07:31:44;24.80;;;10.57;;
70247;SDS011;57641;51.416;5.506;2022-12-18T07:34:10;25.40;;;10.83;;
70247;SDS011;57641;51.416;5.506;2022-12-18T07:36:37;26.47;;;10.70;;
70247;SDS011;57641;51.416;5.506;2022-12-18T07:39:02;23.13;;;10.07;;
70247;SDS011;57641;51.416;5.506;2022-12-18T07:41:28;20.87;;;10.13;;
70247;SDS011;57641;51.416;5.506;2022-12-18T07:43:53;25.37;;;11.90;;
70247;SDS011;57641;51.416;5.506;2022-12-18T07:46:19;30.27;;;11.23;;
70247;SDS011;57641;51.416;5.506;2022-12-18T07:48:44;26.87;;;11.60;;
70247;SDS011;57641;51.416;5.506;2022-12-18T07:51:10;26.47;;;11.33;;
70247;SDS011;57641;51.416;5.506;2022-12-18T07:53:35;23.47;;;10.67;;
70247;SDS011;57641;51.416;5.506;2022-12-18T07:56:05;24.37;;;11.27;;
70247;SDS011;57641;51.416;5.506;2022-12-18T07:58:36;28.70;;;12.03;;
70247;SDS011;57641;51.416;5.506;2022-12-18T08:01:05;26.57;;;12.50;;
70247;SDS011;57641;51.416;5.506;2022-12-18T08:03:33;26.83;;;11.93;;
70247;SDS011;57641;51.416;5.506;2022-12-18T08:06:05;30.03;;;12.60;;
70247;SDS011;57641;51.416;5.506;2022-12-18T08:08:33;28.83;;;12.17;;
70247;SDS011;57641;51.416;5.506;2022-12-18T08:10:59;28.10;;;11.03;;
70247;SDS011;57641;51.416;5.506;2022-12-18T08:13:25;28.07;;;12.23;;
70247;SDS011;57641;51.416;5.506;2022-12-18T08:15:58;29.27;;;11.47;;
70247;SDS011;57641;51.416;5.506;2022-12-18T08:18:25;28.53;;;11.50;;
70247;SDS011;57641;51.416;5.506;2022-12-18T08:20:51;28.87;;;12.20;;
70247;SDS011;57641;51.416;5.506;2022-12-18T08:23:17;30.57;;;11.83;;
70247;SDS011;57641;51.416;5.506;2022-12-18T08:25:42;31.27;;;12.07;;
70247;SDS011;57641;51.416;5.506;2022-12-18T08:28:09;31.03;;;13.00;;
70247;SDS011;57641;51.416;5.506;2022-12-18T08:30:35;30.77;;;12.93;;
70247;SDS011;57641;51.416;5.506;2022-12-18T08:33:00;29.63;;;12.73;;
70247;SDS011;57641;51.416;5.506;2022-12-18T08:35:26;29.97;;;12.17;;
70247;SDS011;57641;51.416;5.506;2022-12-18T08:37:57;27.47;;;11.97;;
70247;SDS011;57641;51.416;5.506;2022-12-18T08:40:23;33.73;;;12.77;;
70247;SDS011;57641;51.416;5.506;2022-12-18T08:42:48;32.63;;;12.53;;
70247;SDS011;57641;51.416;5.506;2022-12-18T08:45:33;32.00;;;12.93;;
70247;SDS011;57641;51.416;5.506;2022-12-18T08:47:59;31.00;;;12.90;;
70247;SDS011;57641;51.416;5.506;2022-12-18T08:50:24;30.97;;;12.63;;
70247;SDS011;57641;51.416;5.506;2022-12-18T08:52:56;31.57;;;12.57;;
70247;SDS011;57641;51.416;5.506;2022-12-18T08:55:21;32.40;;;11.97;;
70247;SDS011;57641;51.416;5.506;2022-12-18T08:57:49;30.43;;;12.33;;
70247;SDS011;57641;51.416;5.506;2022-12-18T09:00:15;31.70;;;13.53;;
70247;SDS011;57641;51.416;5.506;2022-12-18T09:02:41;25.77;;;11.50;;
70247;SDS011;57641;51.416;5.506;2022-12-18T09:05:07;32.97;;;14.23;;
70247;SDS011;57641;51.416;5.506;2022-12-18T09:07:33;28.53;;;13.17;;
70247;SDS011;57641;51.416;5.506;2022-12-18T09:09:58;29.93;;;13.60;;
70247;SDS011;57641;51.416;5.506;2022-12-18T09:12:23;29.97;;;13.37;;
70247;SDS011;57641;51.416;5.506;2022-12-18T09:14:50;34.57;;;14.00;;
70247;SDS011;57641;51.416;5.506;2022-12-18T09:17:15;32.73;;;12.73;;
70247;SDS011;57641;51.416;5.506;2022-12-18T09:19:43;34.33;;;14.37;;
70247;SDS011;57641;51.416;5.506;2022-12-18T09:22:09;33.13;;;14.13;;
70247;SDS011;57641;51.416;5.506;2022-12-18T09:24:34;32.27;;;13.33;;
70247;SDS011;57641;51.416;5.506;2022-12-18T09:27:00;37.50;;;14.93;;
70247;SDS011;57641;51.416;5.506;2022-12-18T09:29:26;34.30;;;14.13;;
70247;SDS011;57641;51.416;5.506;2022-12-18T09:31:51;29.87;;;14.27;;
70247;SDS011;57641;51.416;5.506;2022-12-18T09:34:17;33.10;;;13.13;;
70247;SDS011;57641;51.416;5.506;2022-12-18T09:36:42;34.80;;;13.77;;
70247;SDS011;57641;51.416;5.506;2022-12-18T09:39:08;33.43;;;14.33;;
70247;SDS011;57641;51.416;5.506;2022-12-18T09:41:39;31.87;;;13.13;;
70247;SDS011;57641;51.416;5.506;2022-12-18T09:44:27;37.80;;;13.60;;
70247;SDS011;57641;51.416;5.506;2022-12-18T09:49:44;28.60;;;12.87;;
70247;SDS011;57641;51.416;5.506;2022-12-18T09:52:17;28.80;;;13.47;;
70247;SDS011;57641;51.416;5.506;2022-12-18T09:54:53;31.87;;;14.97;;
70247;SDS011;57641;51.416;5.506;2022-12-18T09:57:41;29.03;;;13.97;;
70247;SDS011;57641;51.416;5.506;2022-12-18T10:00:21;29.73;;;12.90;;
70247;SDS011;57641;51.416;5.506;2022-12-18T10:02:49;31.50;;;13.43;;
70247;SDS011;57641;51.416;5.506;2022-12-18T10:05:29;32.47;;;13.97;;
70247;SDS011;57641;51.416;5.506;2022-12-18T10:08:16;31.73;;;14.35;;
70247;SDS011;57641;51.416;5.506;2022-12-18T10:10:48;32.30;;;15.00;;
70247;SDS011;57641;51.416;5.506;2022-12-18T10:13:31;31.03;;;14.53;;
70247;SDS011;57641;51.416;5.506;2022-12-18T10:21:23;34.15;;;16.17;;
70247;SDS011;57641;51.416;5.506;2022-12-18T10:26:41;38.00;;;17.17;;
70247;SDS011;57641;51.416;5.506;2022-12-18T10:29:09;38.03;;;17.27;;
70247;SDS011;57641;51.416;5.506;2022-12-18T10:31:37;41.50;;;18.23;;
70247;SDS011;57641;51.416;5.506;2022-12-18T10:34:03;47.40;;;19.97;;
70247;SDS011;57641;51.416;5.506;2022-12-18T10:36:28;43.77;;;19.53;;
70247;SDS011;57641;51.416;5.506;2022-12-18T10:38:54;45.87;;;21.40;;
70247;SDS011;57641;51.416;5.506;2022-12-18T10:41:39;51.73;;;23.63;;
70247;SDS011;57641;51.416;5.506;2022-12-18T10:44:10;60.37;;;27.30;;
70247;SDS011;57641;51.416;5.506;2022-12-18T10:46:44;53.03;;;24.13;;
70247;SDS011;57641;51.416;5.506;2022-12-18T10:49:22;56.13;;;25.67;;
70247;SDS011;57641;51.416;5.506;2022-12-18T10:52:04;50.80;;;21.97;;
70247;SDS011;57641;51.416;5.506;2022-12-18T10:54:46;47.43;;;22.50;;
70247;SDS011;57641;51.416;5.506;2022-12-18T11:00:23;42.37;;;18.87;;
70247;SDS011;57641;51.416;5.506;2022-12-18T11:02:51;35.07;;;16.33;;
70247;SDS011;57641;51.416;5.506;2022-12-18T11:05:25;38.78;;;16.27;;
70247;SDS011;57641;51.416;5.506;2022-12-18T11:07:53;38.65;;;16.42;;
70247;SDS011;57641;51.416;5.506;2022-12-18T11:10:20;37.58;;;18.08;;
70247;SDS011;57641;51.416;5.506;2022-12-18T11:12:47;37.83;;;17.80;;
70247;SDS011;57641;51.416;5.506;2022-12-18T11:17:59;36.38;;;16.33;;
70247;SDS011;57641;51.416;5.506;2022-12-18T11:20:32;35.72;;;17.08;;
70247;SDS011;57641;51.416;5.506;2022-12-18T11:23:05;33.23;;;16.70;;
70247;SDS011;57641;51.416;5.506;2022-12-18T11:25:37;32.67;;;14.60;;
70247;SDS011;57641;51.416;5.506;2022-12-18T11:33:50;32.80;;;13.90;;
70247;SDS011;57641;51.416;5.506;2022-12-18T11:36:16;31.38;;;13.88;;
70247;SDS011;57641;51.416;5.506;2022-12-18T11:38:43;27.50;;;13.00;;
70247;SDS011;57641;51.416;5.506;2022-12-18T11:43:49;29.17;;;13.32;;
70247;SDS011;57641;51.416;5.506;2022-12-18T11:46:39;30.43;;;13.93;;
70247;SDS011;57641;51.416;5.506;2022-12-18T11:49:26;34.08;;;13.65;;
70247;SDS011;57641;51.416;5.506;2022-12-18T11:54:58;35.90;;;14.07;;
70247;SDS011;57641;51.416;5.506;2022-12-18T12:09:45;29.52;;;12.18;;
70247;SDS011;57641;51.416;5.506;2022-12-18T12:17:55;26.67;;;12.82;;
70247;SDS011;57641;51.416;5.506;2022-12-18T12:20:42;28.05;;;11.98;;
70247;SDS011;57641;51.416;5.506;2022-12-18T12:23:41;28.27;;;12.80;;
70247;SDS011;57641;51.416;5.506;2022-12-18T12:26:23;25.90;;;12.43;;
70247;SDS011;57641;51.416;5.506;2022-12-18T12:29:03;22.65;;;11.20;;
70247;SDS011;57641;51.416;5.506;2022-12-18T12:31:53;30.58;;;13.15;;
70247;SDS011;57641;51.416;5.506;2022-12-18T12:40:24;29.90;;;12.27;;
70247;SDS011;57641;51.416;5.506;2022-12-18T12:51:39;29.23;;;12.48;;
70247;SDS011;57641;51.416;5.506;2022-12-18T12:54:15;26.10;;;12.45;;
70247;SDS011;57641;51.416;5.506;2022-12-18T13:05:44;25.57;;;11.53;;
70247;SDS011;57641;51.416;5.506;2022-12-18T13:08:27;29.88;;;11.95;;
70247;SDS011;57641;51.416;5.506;2022-12-18T13:10:54;25.88;;;12.20;;
70247;SDS011;57641;51.416;5.506;2022-12-18T13:13:51;26.33;;;12.13;;
70247;SDS011;57641;51.416;5.506;2022-12-18T13:16:22;24.73;;;12.68;;
70247;SDS011;57641;51.416;5.506;2022-12-18T13:18:50;24.10;;;12.00;;
70247;SDS011;57641;51.416;5.506;2022-12-18T13:23:54;29.42;;;13.07;;
70247;SDS011;57641;51.416;5.506;2022-12-18T13:26:31;29.73;;;13.57;;
70247;SDS011;57641;51.416;5.506;2022-12-18T13:28:58;25.67;;;12.30;;
70247;SDS011;57641;51.416;5.506;2022-12-18T13:43:21;25.00;;;12.10;;
70247;SDS011;57641;51.416;5.506;2022-12-18T13:48:29;27.08;;;13.05;;
70247;SDS011;57641;51.416;5.506;2022-12-18T13:51:08;24.50;;;12.60;;
70247;SDS011;57641;51.416;5.506;2022-12-18T13:53:38;28.15;;;12.02;;
70247;SDS011;57641;51.416;5.506;2022-12-18T13:56:29;27.17;;;12.00;;
70247;SDS011;57641;51.416;5.506;2022-12-18T14:06:50;27.33;;;12.55;;
70247;SDS011;57641;51.416;5.506;2022-12-18T14:09:21;27.70;;;12.73;;
70247;SDS011;57641;51.416;5.506;2022-12-18T14:11:51;25.67;;;12.70;;
70247;SDS011;57641;51.416;5.506;2022-12-18T14:14:40;26.30;;;12.30;;
70247;SDS011;57641;51.416;5.506;2022-12-18T14:17:12;27.25;;;12.98;;
70247;SDS011;57641;51.416;5.506;2022-12-18T14:19:42;30.63;;;12.57;;
70247;SDS011;57641;51.416;5.506;2022-12-18T14:22:20;25.83;;;11.30;;
70247;SDS011;57641;51.416;5.506;2022-12-18T14:27:49;27.98;;;12.60;;
70247;SDS011;57641;51.416;5.506;2022-12-18T14:30:38;26.73;;;12.43;;
70247;SDS011;57641;51.416;5.506;2022-12-18T14:33:16;30.30;;;11.43;;
70247;SDS011;57641;51.416;5.506;2022-12-18T14:35:54;28.02;;;13.27;;
70247;SDS011;57641;51.416;5.506;2022-12-18T14:38:31;26.15;;;12.93;;
70247;SDS011;57641;51.416;5.506;2022-12-18T14:41:04;26.50;;;11.20;;
70247;SDS011;57641;51.416;5.506;2022-12-18T14:43:36;23.80;;;11.75;;
70247;SDS011;57641;51.416;5.506;2022-12-18T14:46:03;28.00;;;12.30;;
70247;SDS011;57641;51.416;5.506;2022-12-18T14:53:46;27.13;;;12.38;;
70247;SDS011;57641;51.416;5.506;2022-12-18T14:56:16;27.77;;;11.68;;
70247;SDS011;57641;51.416;5.506;2022-12-18T15:01:22;26.38;;;11.63;;
70247;SDS011;57641;51.416;5.506;2022-12-18T15:04:00;24.35;;;12.80;;
70247;SDS011;57641;51.416;5.506;2022-12-18T15:06:31;22.55;;;11.80;;
70247;SDS011;57641;51.416;5.506;2022-12-18T15:09:05;24.63;;;12.82;;
70247;SDS011;57641;51.416;5.506;2022-12-18T15:11:47;26.10;;;11.65;;
70247;SDS011;57641;51.416;5.506;2022-12-18T15:17:18;24.33;;;11.45;;
70247;SDS011;57641;51.416;5.506;2022-12-18T15:19:47;27.73;;;13.75;;
70247;SDS011;57641;51.416;5.506;2022-12-18T15:22:18;25.27;;;11.30;;
70247;SDS011;57641;51.416;5.506;2022-12-18T15:24:46;23.75;;;11.80;;
70247;SDS011;57641;51.416;5.506;2022-12-18T15:32:33;27.65;;;12.68;;
70247;SDS011;57641;51.416;5.506;2022-12-18T15:37:46;28.50;;;13.18;;
70247;SDS011;57641;51.416;5.506;2022-12-18T15:40:14;23.75;;;11.27;;
70247;SDS011;57641;51.416;5.506;2022-12-18T15:42:41;24.63;;;12.00;;
70247;SDS011;57641;51.416;5.506;2022-12-18T15:45:27;27.13;;;11.55;;
70247;SDS011;57641;51.416;5.506;2022-12-18T15:47:52;26.83;;;11.90;;
70247;SDS011;57641;51.416;5.506;2022-12-18T15:50:18;22.02;;;11.00;;
70247;SDS011;57641;51.416;5.506;2022-12-18T15:52:44;28.25;;;12.23;;
70247;SDS011;57641;51.416;5.506;2022-12-18T15:55:22;24.55;;;12.05;;
70247;SDS011;57641;51.416;5.506;2022-12-18T15:58:09;27.80;;;12.75;;
70247;SDS011;57641;51.416;5.506;2022-12-18T16:00:38;26.02;;;12.38;;
70247;SDS011;57641;51.416;5.506;2022-12-18T16:03:05;24.38;;;11.55;;
70247;SDS011;57641;51.416;5.506;2022-12-18T16:05:31;29.17;;;12.45;;
70247;SDS011;57641;51.416;5.506;2022-12-18T16:07:57;24.33;;;11.88;;
70247;SDS011;57641;51.416;5.506;2022-12-18T16:10:24;26.65;;;12.70;;
70247;SDS011;57641;51.416;5.506;2022-12-18T16:12:51;27.40;;;13.00;;
70247;SDS011;57641;51.416;5.506;2022-12-18T16:15:17;25.50;;;12.10;;
70247;SDS011;57641;51.416;5.506;2022-12-18T16:17:43;30.65;;;13.25;;
70247;SDS011;57641;51.416;5.506;2022-12-18T16:20:13;26.17;;;13.32;;
70247;SDS011;57641;51.416;5.506;2022-12-18T16:22:48;27.00;;;12.20;;
70247;SDS011;57641;51.416;5.506;2022-12-18T16:25:19;23.75;;;12.45;;
70247;SDS011;57641;51.416;5.506;2022-12-18T16:27:50;24.60;;;11.90;;
70247;SDS011;57641;51.416;5.506;2022-12-18T16:30:32;29.70;;;12.75;;
70247;SDS011;57641;51.416;5.506;2022-12-18T16:32:57;26.15;;;12.27;;
70247;SDS011;57641;51.416;5.506;2022-12-18T16:35:23;23.95;;;12.30;;
70247;SDS011;57641;51.416;5.506;2022-12-18T16:37:50;24.67;;;12.18;;
70247;SDS011;57641;51.416;5.506;2022-12-18T16:40:15;28.08;;;12.32;;
70247;SDS011;57641;51.416;5.506;2022-12-18T16:42:45;27.58;;;13.25;;
70247;SDS011;57641;51.416;5.506;2022-12-18T16:45:13;25.10;;;12.50;;
70247;SDS011;57641;51.416;5.506;2022-12-18T16:47:47;24.77;;;13.13;;
70247;SDS011;57641;51.416;5.506;2022-12-18T16:50:12;26.38;;;11.80;;
70247;SDS011;57641;51.416;5.506;2022-12-18T16:52:39;28.38;;;12.48;;
70247;SDS011;57641;51.416;5.506;2022-12-18T16:55:05;28.27;;;12.75;;
70247;SDS011;57641;51.416;5.506;2022-12-18T16:57:31;25.63;;;12.95;;
70247;SDS011;57641;51.416;5.506;2022-12-18T16:59:57;24.95;;;11.80;;
70247;SDS011;57641;51.416;5.506;2022-12-18T17:02:24;26.88;;;12.95;;
70247;SDS011;57641;51.416;5.506;2022-12-18T17:04:54;29.95;;;12.52;;
70247;SDS011;57641;51.416;5.506;2022-12-18T17:07:21;29.13;;;14.25;;